createdAt,value
2023-01-26T00:00:19.752Z,-1.30
2023-01-26T00:01:23.735Z,-1.23
2023-01-26T00:02:25.501Z,-1.25
2023-01-26T00:03:27.835Z,-1.35
2023-01-26T00:04:29.484Z,-1.32
2023-01-26T00:05:31.078Z,-1.38
2023-01-26T00:06:32.701Z,-1.35
2023-01-26T00:07:34.409Z,-1.20
2023-01-26T00:08:39.854Z,-1.29
2023-01-26T00:09:41.489Z,-1.19
2023-01-26T00:10:50.258Z,-1.26
2023-01-26T00:11:51.963Z,-1.29
2023-01-26T00:12:53.584Z,-1.28
2023-01-26T00:13:57.252Z,-1.15
2023-01-26T00:14:58.875Z,-1.11
2023-01-26T00:16:01.062Z,-1.15
2023-01-26T00:17:02.698Z,-1.07
2023-01-26T00:18:04.343Z,-1.22
2023-01-26T00:19:06.004Z,-1.14
2023-01-26T00:20:08.493Z,-1.23
2023-01-26T00:21:15.728Z,-1.23
2023-01-26T00:22:17.439Z,-1.21
2023-01-26T00:23:19.009Z,-1.14
2023-01-26T00:24:20.685Z,-1.16
2023-01-26T00:25:22.440Z,-1.21
2023-01-26T00:26:26.075Z,-1.25
2023-01-26T00:27:27.812Z,-1.31
2023-01-26T00:28:29.498Z,-1.39
2023-01-26T00:29:31.187Z,-1.22
2023-01-26T00:30:32.838Z,-1.35
2023-01-26T00:31:34.552Z,-1.32
2023-01-26T00:32:36.635Z,-1.30
2023-01-26T00:33:38.359Z,-1.23
2023-01-26T00:34:40.034Z,-1.31
2023-01-26T00:35:44.758Z,-1.25
2023-01-26T00:36:46.396Z,-1.23
2023-01-26T00:37:47.996Z,-1.28
2023-01-26T00:38:49.750Z,-1.21
2023-01-26T00:39:51.398Z,-1.23
2023-01-26T00:40:53.107Z,-1.35
2023-01-26T00:42:09.823Z,-1.34
2023-01-26T00:43:11.440Z,-1.29
2023-01-26T00:44:13.074Z,-1.31
2023-01-26T00:45:14.825Z,-1.25
2023-01-26T00:46:16.463Z,-1.31
2023-01-26T00:47:18.687Z,-1.29
2023-01-26T00:48:21.180Z,-1.24
2023-01-26T00:49:24.154Z,-1.25
2023-01-26T00:50:27.643Z,-1.30
2023-01-26T00:51:31.525Z,-1.26
2023-01-26T00:52:33.226Z,-1.30
2023-01-26T00:53:34.831Z,-1.21
2023-01-26T00:54:36.498Z,-1.25
2023-01-26T00:55:38.127Z,-1.29
2023-01-26T00:56:41.064Z,-1.31
2023-01-26T00:57:42.775Z,-1.27
2023-01-26T00:58:45.511Z,-1.30
2023-01-26T00:59:47.238Z,-1.38
2023-01-26T01:00:48.923Z,-1.43
2023-01-26T01:01:50.943Z,-1.43
2023-01-26T01:02:52.913Z,-1.45
2023-01-26T01:03:54.667Z,-1.47
2023-01-26T01:04:56.344Z,-1.47
2023-01-26T01:05:57.983Z,-1.51
2023-01-26T01:06:59.635Z,-1.46
2023-01-26T01:08:01.976Z,-1.36
2023-01-26T01:09:03.803Z,-1.51
2023-01-26T01:10:05.666Z,-1.57
2023-01-26T01:11:10.269Z,-1.58
2023-01-26T01:12:11.959Z,-1.51
2023-01-26T01:13:13.604Z,-1.54
2023-01-26T01:14:15.942Z,-1.42
2023-01-26T01:15:18.563Z,-1.38
2023-01-26T01:16:20.785Z,-1.53
2023-01-26T01:17:22.444Z,-1.44
2023-01-26T01:18:24.079Z,-1.51
2023-01-26T01:19:25.776Z,-1.54
2023-01-26T01:20:27.525Z,-1.64
2023-01-26T01:21:29.250Z,-1.56
2023-01-26T01:22:30.980Z,-1.56
2023-01-26T01:23:33.089Z,-1.64
2023-01-26T01:24:35.337Z,-1.61
2023-01-26T01:25:36.962Z,-1.57
2023-01-26T01:26:39.441Z,-1.55
2023-01-26T01:27:41.173Z,-1.54
2023-01-26T01:28:43.792Z,-1.55
2023-01-26T01:29:45.348Z,-1.53
2023-01-26T01:30:47.012Z,-1.67
2023-01-26T01:31:49.337Z,-1.64
2023-01-26T01:32:52.230Z,-1.54
2023-01-26T01:33:54.146Z,-1.48
2023-01-26T01:34:55.787Z,-1.56
2023-01-26T01:36:03.698Z,-1.58
2023-01-26T01:37:05.389Z,-1.58
2023-01-26T01:38:07.035Z,-1.66
2023-01-26T01:39:08.886Z,-1.59
2023-01-26T01:40:13.646Z,-1.63
2023-01-26T01:41:18.005Z,-1.57
2023-01-26T01:42:20.237Z,-1.36
2023-01-26T01:43:22.871Z,-1.40
2023-01-26T01:44:24.837Z,-1.51
2023-01-26T01:45:26.381Z,-1.59
2023-01-26T01:46:34.256Z,-1.49
2023-01-26T01:47:35.976Z,-1.45
2023-01-26T01:49:03.538Z,-1.41
2023-01-26T01:50:07.153Z,-1.35
2023-01-26T01:51:24.048Z,-1.37
2023-01-26T01:52:28.975Z,-1.46
2023-01-26T01:53:36.078Z,-1.51
2023-01-26T01:54:43.138Z,-1.38
2023-01-26T01:55:45.582Z,-1.33
2023-01-26T01:56:50.923Z,-1.29
2023-01-26T01:57:58.964Z,-1.44
2023-01-26T01:59:01.654Z,-1.35
2023-01-26T02:00:08.989Z,-1.36
2023-01-26T02:01:16.767Z,-1.47
2023-01-26T02:02:18.449Z,-1.32
2023-01-26T02:03:21.236Z,-1.31
2023-01-26T02:04:24.046Z,-1.29
2023-01-26T02:05:29.687Z,-1.40
2023-01-26T02:06:47.453Z,-1.34
2023-01-26T02:07:50.618Z,-1.40
2023-01-26T02:08:54.230Z,-1.47
2023-01-26T02:10:14.624Z,-1.42
2023-01-26T02:11:40.638Z,-1.40
2023-01-26T02:12:42.526Z,-1.28
2023-01-26T02:13:46.448Z,-1.31
2023-01-26T02:14:48.398Z,-1.26
2023-01-26T02:15:50.315Z,-1.34
2023-01-26T02:16:52.081Z,-1.47
2023-01-26T02:17:55.112Z,-1.45
2023-01-26T02:18:57.266Z,-1.43
2023-01-26T02:20:14.062Z,-1.45
2023-01-26T02:21:20.620Z,-1.52
2023-01-26T02:22:32.685Z,-1.61
2023-01-26T02:24:02.269Z,-1.65
2023-01-26T02:25:18.721Z,-1.58
2023-01-26T02:26:26.517Z,-1.67
2023-01-26T02:27:28.449Z,-1.57
2023-01-26T02:28:30.452Z,-1.59
2023-01-26T02:29:32.075Z,-1.65
2023-01-26T02:30:33.703Z,-1.54
2023-01-26T02:31:35.653Z,-1.37
2023-01-26T02:32:37.329Z,-1.43
2023-01-26T02:33:39.396Z,-1.49
2023-01-26T02:34:41.271Z,-1.42
2023-01-26T02:35:42.919Z,-1.51
2023-01-26T02:36:44.608Z,-1.48
2023-01-26T02:37:46.254Z,-1.48
2023-01-26T02:39:20.624Z,-1.55
2023-01-26T02:40:31.525Z,-1.54
2023-01-26T02:41:52.143Z,-1.49
2023-01-26T02:42:55.193Z,-1.37
2023-01-26T02:43:56.810Z,-1.33
2023-01-26T02:44:58.474Z,-1.47
2023-01-26T02:46:00.233Z,-1.34
2023-01-26T02:47:11.051Z,-1.30
2023-01-26T02:48:12.693Z,-1.32
2023-01-26T02:49:41.609Z,-1.35
2023-01-26T02:50:43.351Z,-1.45
2023-01-26T02:51:44.918Z,-1.39
2023-01-26T02:52:46.702Z,-1.41
2023-01-26T02:53:51.998Z,-1.44
2023-01-26T02:55:13.233Z,-1.50
2023-01-26T02:56:14.917Z,-1.32
2023-01-26T02:57:16.483Z,-1.36
2023-01-26T02:58:19.312Z,-1.37
2023-01-26T02:59:21.293Z,-1.33
2023-01-26T03:00:24.922Z,-1.38
2023-01-26T03:01:27.098Z,-1.39
2023-01-26T03:02:28.658Z,-1.42
2023-01-26T03:03:44.995Z,-1.41
2023-01-26T03:04:48.433Z,-1.30
2023-01-26T03:05:50.674Z,-1.47
2023-01-26T03:06:52.747Z,-1.41
2023-01-26T03:07:54.630Z,-1.40
2023-01-26T03:08:58.937Z,-1.37
2023-01-26T03:10:00.601Z,-1.46
2023-01-26T03:11:05.243Z,-1.39
2023-01-26T03:12:07.565Z,-1.26
2023-01-26T03:13:09.648Z,-1.17
2023-01-26T03:14:12.532Z,-1.22
2023-01-26T03:15:32.525Z,-1.29
2023-01-26T03:16:34.226Z,-1.31
2023-01-26T03:17:36.253Z,-1.41
2023-01-26T03:18:58.278Z,-1.35
2023-01-26T03:20:18.629Z,-1.24
2023-01-26T03:21:39.453Z,-1.26
2023-01-26T03:22:59.672Z,-1.25
2023-01-26T03:24:23.121Z,-1.13
2023-01-26T03:25:47.014Z,-1.34
2023-01-26T03:27:07.352Z,-1.29
2023-01-26T03:28:08.914Z,-1.27
2023-01-26T03:29:10.534Z,-1.32
2023-01-26T03:30:16.028Z,-1.35
2023-01-26T03:31:19.575Z,-1.24
2023-01-26T03:32:22.090Z,-1.28
2023-01-26T03:33:25.437Z,-1.32
2023-01-26T03:34:29.658Z,-1.36
2023-01-26T03:35:32.530Z,-1.40
2023-01-26T03:36:34.780Z,-1.46
2023-01-26T03:37:43.574Z,-1.41
2023-01-26T03:38:50.012Z,-1.39
2023-01-26T03:40:11.445Z,-1.14
2023-01-26T03:41:31.911Z,-1.42
2023-01-26T03:42:53.931Z,-1.28
2023-01-26T03:44:14.324Z,-1.28
2023-01-26T03:45:36.252Z,-1.47
2023-01-26T03:46:56.593Z,-1.56
2023-01-26T03:48:27.549Z,-1.46
2023-01-26T03:49:47.948Z,-1.44
2023-01-26T03:51:08.374Z,-1.52
2023-01-26T03:52:28.619Z,-1.51
2023-01-26T03:53:48.905Z,-1.42
2023-01-26T03:55:09.206Z,-1.39
2023-01-26T03:56:24.761Z,-1.36
2023-01-26T03:57:29.937Z,-1.38
2023-01-26T03:58:33.770Z,-1.50
2023-01-26T03:59:38.496Z,-1.57
2023-01-26T04:00:43.806Z,-1.49
2023-01-26T04:02:04.931Z,-1.55
2023-01-26T04:03:26.014Z,-1.55
2023-01-26T04:04:45.972Z,-1.55
2023-01-26T04:06:15.654Z,-1.27
2023-01-26T04:07:39.707Z,-1.48
2023-01-26T04:08:41.377Z,-1.55
2023-01-26T04:09:42.982Z,-1.59
2023-01-26T04:10:44.575Z,-1.60
2023-01-26T04:11:47.745Z,-1.39
2023-01-26T04:13:08.839Z,-1.47
2023-01-26T04:14:38.156Z,-1.50
2023-01-26T04:16:10.610Z,-1.49
2023-01-26T04:17:30.822Z,-1.43
2023-01-26T04:18:51.674Z,-1.47
2023-01-26T04:20:12.493Z,-1.46
2023-01-26T04:21:29.899Z,-1.48
2023-01-26T04:22:43.524Z,-1.40
2023-01-26T04:23:45.207Z,-1.34
2023-01-26T04:24:46.933Z,-1.41
2023-01-26T04:25:48.823Z,-1.40
2023-01-26T04:26:50.906Z,-1.42
2023-01-26T04:27:57.701Z,-1.43
2023-01-26T04:28:59.375Z,-1.39
2023-01-26T04:30:04.696Z,-1.48
2023-01-26T04:31:07.558Z,-1.45
2023-01-26T04:32:11.089Z,-1.37
2023-01-26T04:33:13.088Z,-1.31
2023-01-26T04:34:15.991Z,-1.44
2023-01-26T04:35:18.213Z,-1.34
2023-01-26T04:36:22.391Z,-1.43
2023-01-26T04:37:25.659Z,-1.53
2023-01-26T04:38:27.307Z,-1.49
2023-01-26T04:39:29.269Z,-1.58
2023-01-26T04:40:31.593Z,-1.27
2023-01-26T04:41:34.154Z,-1.39
2023-01-26T04:42:47.218Z,-1.41
2023-01-26T04:43:48.980Z,-1.43
2023-01-26T04:44:51.984Z,-1.43
2023-01-26T04:46:00.189Z,-1.43
2023-01-26T04:47:02.949Z,-1.47
2023-01-26T04:48:04.912Z,-1.44
2023-01-26T04:49:06.672Z,-1.32
2023-01-26T04:50:10.409Z,-1.44
2023-01-26T04:51:14.071Z,-1.37
2023-01-26T04:52:16.222Z,-1.39
2023-01-26T04:53:17.917Z,-1.36
2023-01-26T04:54:19.493Z,-1.37
2023-01-26T04:55:21.497Z,-1.29
2023-01-26T04:56:25.546Z,-1.26
2023-01-26T04:57:27.872Z,-1.41
2023-01-26T04:58:30.301Z,-1.42
2023-01-26T04:59:32.088Z,-1.50
2023-01-26T05:00:35.490Z,-1.53
2023-01-26T05:01:37.980Z,-1.49
2023-01-26T05:02:41.858Z,-1.50
2023-01-26T05:03:44.168Z,-1.57
2023-01-26T05:04:47.035Z,-1.56
2023-01-26T05:05:51.999Z,-1.59
2023-01-26T05:06:55.123Z,-1.60
2023-01-26T05:07:59.281Z,-1.49
2023-01-26T05:09:03.435Z,-1.51
2023-01-26T05:10:07.533Z,-1.35
2023-01-26T05:11:28.071Z,-1.55
2023-01-26T05:12:34.805Z,-1.54
2023-01-26T05:13:55.030Z,-1.54
2023-01-26T05:15:32.061Z,-1.54
2023-01-26T05:16:47.826Z,-1.31
2023-01-26T05:18:00.566Z,-1.36
2023-01-26T05:19:20.962Z,-1.47
2023-01-26T05:20:33.052Z,-1.39
2023-01-26T05:21:48.625Z,-1.17
2023-01-26T05:22:50.267Z,-1.31
2023-01-26T05:24:12.367Z,-1.42
2023-01-26T05:25:36.038Z,-1.35
2023-01-26T05:26:44.558Z,-1.16
2023-01-26T05:27:52.845Z,-1.30
2023-01-26T05:28:54.511Z,-1.27
2023-01-26T05:30:00.279Z,-1.19
2023-01-26T05:31:02.361Z,-1.22
2023-01-26T05:32:04.314Z,-1.24
2023-01-26T05:33:08.050Z,-1.33
2023-01-26T05:34:09.778Z,-1.39
2023-01-26T05:35:12.274Z,-1.25
2023-01-26T05:36:14.616Z,-1.35
2023-01-26T05:37:16.982Z,-1.46
2023-01-26T05:38:20.733Z,-1.48
2023-01-26T05:39:23.144Z,-1.28
2023-01-26T05:40:26.098Z,-1.35
2023-01-26T05:41:28.149Z,-1.28
2023-01-26T05:42:46.449Z,-1.26
2023-01-26T05:44:18.251Z,-1.41
2023-01-26T05:45:30.519Z,-1.28
2023-01-26T05:46:35.131Z,-1.28
2023-01-26T05:47:37.587Z,-1.43
2023-01-26T05:48:39.297Z,-1.36
2023-01-26T05:49:45.725Z,-1.39
2023-01-26T05:50:52.325Z,-1.43
2023-01-26T05:51:56.832Z,-1.32
2023-01-26T05:53:00.546Z,-1.27
2023-01-26T05:54:02.358Z,-1.22
2023-01-26T05:55:06.097Z,-1.32
2023-01-26T05:56:08.572Z,-1.22
2023-01-26T05:57:13.231Z,-1.28
2023-01-26T05:58:19.838Z,-1.40
2023-01-26T05:59:22.174Z,-1.27
2023-01-26T06:00:24.048Z,-1.26
2023-01-26T06:01:33.442Z,-1.23
2023-01-26T06:02:38.155Z,-1.34
2023-01-26T06:03:39.820Z,-1.32
2023-01-26T06:04:41.444Z,-1.20
2023-01-26T06:05:43.045Z,-1.19
2023-01-26T06:06:58.284Z,-1.22
2023-01-26T06:08:04.699Z,-1.18
2023-01-26T06:09:14.131Z,-1.12
2023-01-26T06:10:34.244Z,-1.28
2023-01-26T06:11:57.687Z,-1.16
2023-01-26T06:13:06.093Z,-1.11
2023-01-26T06:14:16.749Z,-1.09
2023-01-26T06:15:18.542Z,-1.15
2023-01-26T06:16:21.782Z,-1.30
2023-01-26T06:17:24.558Z,-1.33
2023-01-26T06:18:37.579Z,-1.36
2023-01-26T06:19:40.640Z,-1.41
2023-01-26T06:20:44.205Z,-1.44
2023-01-26T06:21:46.032Z,-1.48
2023-01-26T06:22:47.823Z,-1.48
2023-01-26T06:23:50.325Z,-1.52
2023-01-26T06:24:52.050Z,-1.49
2023-01-26T06:25:59.301Z,-1.48
2023-01-26T06:27:01.272Z,-1.45
2023-01-26T06:28:03.945Z,-1.47
2023-01-26T06:29:06.784Z,-1.27
2023-01-26T06:30:10.972Z,-1.28
2023-01-26T06:31:13.128Z,-1.31
2023-01-26T06:32:15.449Z,-1.35
2023-01-26T06:33:19.121Z,-1.32
2023-01-26T06:34:21.578Z,-1.30
2023-01-26T06:35:24.148Z,-1.38
2023-01-26T06:36:26.546Z,-1.37
2023-01-26T06:37:28.288Z,-1.32
2023-01-26T06:38:30.351Z,-1.30
2023-01-26T06:39:32.084Z,-1.38
2023-01-26T06:40:35.267Z,-1.44
2023-01-26T06:41:36.991Z,-1.37
2023-01-26T06:42:38.984Z,-1.41
2023-01-26T06:43:45.182Z,-1.33
2023-01-26T06:44:48.289Z,-1.37
2023-01-26T06:45:51.445Z,-1.37
2023-01-26T06:46:54.699Z,-1.19
2023-01-26T06:47:56.477Z,-1.29
2023-01-26T06:49:02.246Z,-1.25
2023-01-26T06:50:04.834Z,-1.21
2023-01-26T06:51:16.900Z,-1.29
2023-01-26T06:52:23.205Z,-1.37
2023-01-26T06:53:30.743Z,-1.47
2023-01-26T06:54:55.884Z,-1.37
2023-01-26T06:56:16.098Z,-1.43
2023-01-26T06:57:30.257Z,-1.38
2023-01-26T06:58:50.871Z,-1.08
2023-01-26T07:00:22.231Z,-1.26
2023-01-26T07:01:42.182Z,-1.16
2023-01-26T07:02:43.844Z,-0.98
2023-01-26T07:03:45.593Z,-1.09
2023-01-26T07:04:48.512Z,-0.98
2023-01-26T07:05:50.167Z,-0.91
2023-01-26T07:06:51.844Z,-0.99
2023-01-26T07:07:54.104Z,-1.05
2023-01-26T07:08:55.696Z,-1.09
2023-01-26T07:09:57.275Z,-1.02
2023-01-26T07:10:58.911Z,-1.06
2023-01-26T07:12:00.558Z,-1.21
2023-01-26T07:13:04.136Z,-1.23
2023-01-26T07:14:05.770Z,-1.15
2023-01-26T07:15:07.908Z,-1.26
2023-01-26T07:16:14.749Z,-1.37
2023-01-26T07:17:16.410Z,-1.42
2023-01-26T07:18:18.046Z,-1.56
2023-01-26T07:19:19.756Z,-1.66
2023-01-26T07:20:21.383Z,-1.73
2023-01-26T07:21:23.077Z,-1.62
2023-01-26T07:22:24.799Z,-1.59
2023-01-26T07:23:26.445Z,-1.47
2023-01-26T07:24:28.150Z,-1.40
2023-01-26T07:25:29.933Z,-1.52
2023-01-26T07:26:31.650Z,-1.49
2023-01-26T07:27:33.281Z,-1.53
2023-01-26T07:28:35.454Z,-1.44
2023-01-26T07:29:37.102Z,-1.40
2023-01-26T07:30:38.741Z,-1.40
2023-01-26T07:31:41.691Z,-1.34
2023-01-26T07:32:43.507Z,-1.34
2023-01-26T07:33:45.243Z,-1.35
2023-01-26T07:34:46.863Z,-1.46
2023-01-26T07:35:48.507Z,-1.39
2023-01-26T07:36:52.148Z,-1.21
2023-01-26T07:37:53.825Z,-1.31
2023-01-26T07:38:55.460Z,-1.24
2023-01-26T07:39:57.062Z,-1.32
2023-01-26T07:40:58.692Z,-1.43
2023-01-26T07:42:00.276Z,-1.36
2023-01-26T07:43:19.714Z,-1.40
2023-01-26T07:44:26.148Z,-1.35
2023-01-26T07:45:28.097Z,-1.32
2023-01-26T07:46:29.774Z,-1.39
2023-01-26T07:47:31.415Z,-1.38
2023-01-26T07:48:34.414Z,-1.42
2023-01-26T07:49:36.086Z,-1.32
2023-01-26T07:50:37.807Z,-1.33
2023-01-26T07:51:42.653Z,-1.33
2023-01-26T07:52:44.951Z,-1.13
2023-01-26T07:53:49.909Z,-1.29
2023-01-26T07:54:51.587Z,-1.19
2023-01-26T07:55:53.294Z,-1.20
2023-01-26T07:56:55.170Z,-1.26
2023-01-26T07:57:57.878Z,-1.29
2023-01-26T07:59:02.285Z,-1.32
2023-01-26T08:00:05.860Z,-1.33
2023-01-26T08:01:14.503Z,-1.10
2023-01-26T08:02:16.252Z,-1.19
2023-01-26T08:03:18.005Z,-1.27
2023-01-26T08:04:19.617Z,-1.18
2023-01-26T08:05:21.270Z,-1.17
2023-01-26T08:06:23.294Z,-1.06
2023-01-26T08:07:25.064Z,-1.20
2023-01-26T08:08:27.014Z,-1.22
2023-01-26T08:09:28.616Z,-1.19
2023-01-26T08:10:31.670Z,-1.21
2023-01-26T08:11:33.330Z,-1.16
2023-01-26T08:12:38.541Z,-1.10
2023-01-26T08:13:41.847Z,-1.14
2023-01-26T08:14:47.019Z,-1.12
2023-01-26T08:15:49.025Z,-1.16
2023-01-26T08:16:50.727Z,-1.17
2023-01-26T08:17:54.612Z,-1.17
2023-01-26T08:18:56.285Z,-1.14
2023-01-26T08:19:57.944Z,-1.19
2023-01-26T08:21:00.454Z,-1.04
2023-01-26T08:22:02.133Z,-1.10
2023-01-26T08:23:03.779Z,-1.07
2023-01-26T08:24:06.537Z,-1.11
2023-01-26T08:25:08.619Z,-1.15
2023-01-26T08:26:13.635Z,-1.07
2023-01-26T08:27:16.254Z,-1.13
2023-01-26T08:28:18.873Z,-1.05
2023-01-26T08:29:22.776Z,-1.04
2023-01-26T08:30:24.430Z,-1.09
2023-01-26T08:31:26.347Z,-1.14
2023-01-26T08:32:30.222Z,-1.16
2023-01-26T08:33:32.618Z,-1.24
2023-01-26T08:34:34.257Z,-1.28
2023-01-26T08:35:36.046Z,-1.19
2023-01-26T08:36:39.209Z,-1.15
2023-01-26T08:37:40.797Z,-1.20
2023-01-26T08:38:42.783Z,-1.10
2023-01-26T08:39:44.513Z,-0.91
2023-01-26T08:40:51.678Z,-0.99
2023-01-26T08:41:53.345Z,-1.14
2023-01-26T08:42:54.976Z,-1.05
2023-01-26T08:43:59.272Z,-1.04
2023-01-26T08:45:00.968Z,-1.07
2023-01-26T08:46:03.081Z,-1.17
2023-01-26T08:47:04.735Z,-1.22
2023-01-26T08:48:06.888Z,-1.09
2023-01-26T08:49:09.226Z,-1.05
2023-01-26T08:50:11.536Z,-1.07
2023-01-26T08:51:13.439Z,-1.28
2023-01-26T08:52:15.154Z,-1.36
2023-01-26T08:53:16.832Z,-1.29
2023-01-26T08:54:18.439Z,-1.51
2023-01-26T08:55:20.167Z,-1.55
2023-01-26T08:56:21.802Z,-1.66
2023-01-26T08:57:23.449Z,-1.46
2023-01-26T08:58:25.070Z,-1.71
2023-01-26T08:59:26.748Z,-1.75
2023-01-26T09:00:28.555Z,-1.23
2023-01-26T09:01:30.324Z,-1.24
2023-01-26T09:02:32.049Z,-1.16
2023-01-26T09:03:33.990Z,-1.20
2023-01-26T09:04:35.709Z,-1.42
2023-01-26T09:05:39.465Z,-1.25
2023-01-26T09:06:41.080Z,-1.28
2023-01-26T09:07:42.714Z,-1.27
2023-01-26T09:08:44.442Z,-1.25
2023-01-26T09:09:46.201Z,-1.37
2023-01-26T09:10:47.860Z,-1.09
2023-01-26T09:11:49.468Z,-1.24
2023-01-26T09:12:51.148Z,-1.01
2023-01-26T09:13:58.591Z,-0.95
2023-01-26T09:15:00.231Z,-1.20
2023-01-26T09:16:13.566Z,-1.31
2023-01-26T09:17:15.272Z,-1.14
2023-01-26T09:18:18.009Z,-0.97
2023-01-26T09:19:19.645Z,-0.90
2023-01-26T09:20:21.453Z,-0.84
2023-01-26T09:21:26.062Z,-1.06
2023-01-26T09:22:27.722Z,-0.97
2023-01-26T09:23:29.335Z,-1.01
2023-01-26T09:24:31.043Z,-0.99
2023-01-26T09:25:32.711Z,-0.92
2023-01-26T09:26:34.299Z,-0.91
2023-01-26T09:27:36.284Z,-1.09
2023-01-26T09:28:38.292Z,-0.99
2023-01-26T09:29:39.895Z,-0.88
2023-01-26T09:30:41.622Z,-0.88
2023-01-26T09:31:43.813Z,-0.71
2023-01-26T09:32:45.483Z,-0.72
2023-01-26T09:33:49.102Z,-0.57
2023-01-26T09:34:50.769Z,-0.69
2023-01-26T09:35:52.495Z,-0.76
2023-01-26T09:36:54.084Z,-0.89
2023-01-26T09:37:55.878Z,-0.85
2023-01-26T09:38:57.811Z,-0.76
2023-01-26T09:39:59.459Z,-0.70
2023-01-26T09:41:25.507Z,-0.82
2023-01-26T09:42:39.539Z,-0.93
2023-01-26T09:44:16.444Z,-0.91
2023-01-26T09:45:27.040Z,-1.02
2023-01-26T09:46:43.970Z,-0.91
2023-01-26T09:47:55.601Z,-0.83
2023-01-26T09:49:07.262Z,-0.94
2023-01-26T09:50:12.734Z,-0.77
2023-01-26T09:51:23.399Z,-0.79
2023-01-26T09:52:31.136Z,-0.95
2023-01-26T09:53:47.246Z,-0.81
2023-01-26T09:54:53.935Z,-0.91
2023-01-26T09:55:56.083Z,-0.88
2023-01-26T09:57:00.697Z,-0.89
2023-01-26T09:58:10.418Z,-0.88
2023-01-26T09:59:35.152Z,-0.75
2023-01-26T10:00:48.975Z,-0.84
2023-01-26T10:02:04.182Z,-0.88
2023-01-26T10:03:27.220Z,-0.92
2023-01-26T10:04:37.012Z,-0.79
2023-01-26T10:05:51.885Z,-0.96
2023-01-26T10:07:14.465Z,-1.00
2023-01-26T10:08:24.973Z,-1.03
2023-01-26T10:09:32.634Z,-1.00
2023-01-26T10:10:37.769Z,-1.02
2023-01-26T10:11:43.560Z,-0.89
2023-01-26T10:12:45.193Z,-0.91
2023-01-26T10:13:51.942Z,-1.04
2023-01-26T10:15:03.633Z,-1.03
2023-01-26T10:16:10.590Z,-1.18
2023-01-26T10:17:31.370Z,-1.18
2023-01-26T10:18:36.897Z,-1.22
2023-01-26T10:19:49.519Z,-1.17
2023-01-26T10:20:56.185Z,-1.25
2023-01-26T10:22:01.289Z,-1.18
2023-01-26T10:23:18.218Z,-1.04
2023-01-26T10:24:23.302Z,-1.03
2023-01-26T10:25:35.295Z,-1.14
2023-01-26T10:26:37.253Z,-1.08
2023-01-26T10:27:38.871Z,-1.08
2023-01-26T10:28:42.017Z,-1.04
2023-01-26T10:29:43.743Z,-1.10
2023-01-26T10:30:47.104Z,-1.20
2023-01-26T10:31:48.929Z,-1.23
2023-01-26T10:32:52.715Z,-1.21
2023-01-26T10:33:58.216Z,-1.10
2023-01-26T10:34:59.820Z,-1.00
2023-01-26T10:36:02.142Z,-0.98
2023-01-26T10:37:15.509Z,-0.97
2023-01-26T10:38:35.287Z,-0.98
2023-01-26T10:39:57.429Z,-0.95
2023-01-26T10:41:03.808Z,-0.94
2023-01-26T10:42:05.524Z,-0.98
2023-01-26T10:43:17.582Z,-0.94
2023-01-26T10:44:43.532Z,-0.78
2023-01-26T10:45:47.168Z,-0.80
2023-01-26T10:47:22.347Z,-0.91
2023-01-26T10:48:26.608Z,-0.82
2023-01-26T10:49:28.745Z,-0.95
2023-01-26T10:50:31.843Z,-0.95
2023-01-26T10:51:34.629Z,-0.86
2023-01-26T10:52:36.473Z,-0.80
2023-01-26T10:53:38.241Z,-0.74
2023-01-26T10:54:43.601Z,-0.77
2023-01-26T10:56:09.839Z,-0.65
2023-01-26T10:57:28.100Z,-0.83
2023-01-26T10:58:54.865Z,-0.70
2023-01-26T10:59:59.133Z,-0.75
2023-01-26T11:01:00.784Z,-0.69
2023-01-26T11:02:20.844Z,-0.77
2023-01-26T11:03:27.831Z,-0.83
2023-01-26T11:04:29.864Z,-0.66
2023-01-26T11:05:31.878Z,-0.80
2023-01-26T11:06:34.101Z,-1.03
2023-01-26T11:07:35.747Z,-0.88
2023-01-26T11:08:39.485Z,-0.74
2023-01-26T11:09:41.097Z,-0.70
2023-01-26T11:10:52.184Z,-0.77
2023-01-26T11:12:02.334Z,-0.91
2023-01-26T11:13:19.979Z,-0.92
2023-01-26T11:14:21.969Z,-0.92
2023-01-26T11:15:25.201Z,-0.91
2023-01-26T11:16:27.938Z,-0.88
2023-01-26T11:17:42.515Z,-1.00
2023-01-26T11:18:55.895Z,-0.83
2023-01-26T11:20:16.496Z,-0.99
2023-01-26T11:21:24.123Z,-0.87
2023-01-26T11:22:30.378Z,-0.84
2023-01-26T11:23:56.474Z,-0.95
2023-01-26T11:25:05.131Z,-0.83
2023-01-26T11:26:52.996Z,-0.90
2023-01-26T11:28:08.898Z,-1.08
2023-01-26T11:29:16.400Z,-0.94
2023-01-26T11:30:44.350Z,-0.98
2023-01-26T11:32:07.673Z,-1.18
2023-01-26T11:33:34.052Z,-1.54
2023-01-26T11:35:06.098Z,-1.49
2023-01-26T11:36:37.955Z,-1.48
2023-01-26T11:37:43.426Z,-1.68
2023-01-26T11:38:58.032Z,-1.82
2023-01-26T11:40:11.832Z,-1.79
2023-01-26T11:41:32.760Z,-1.84
2023-01-26T11:42:34.616Z,-1.72
2023-01-26T11:43:58.023Z,-1.59
2023-01-26T11:45:07.529Z,-1.33
2023-01-26T11:46:15.655Z,-1.36
2023-01-26T11:47:44.505Z,-1.29
2023-01-26T11:49:04.084Z,-1.21
2023-01-26T11:50:21.310Z,-1.24
2023-01-26T11:51:41.824Z,-1.19
2023-01-26T11:53:10.782Z,-1.17
2023-01-26T11:54:36.202Z,-1.09
2023-01-26T11:55:40.891Z,-1.01
2023-01-26T11:56:49.088Z,-1.09
2023-01-26T11:57:59.864Z,-1.09
2023-01-26T11:59:10.726Z,-1.07
2023-01-26T12:00:41.391Z,-0.97
2023-01-26T12:01:53.806Z,-1.05
2023-01-26T12:03:24.616Z,-1.00
2023-01-26T12:04:29.391Z,-1.08
2023-01-26T12:05:41.251Z,-1.04
2023-01-26T12:06:46.085Z,-0.90
2023-01-26T12:07:57.011Z,-0.89
2023-01-26T12:09:03.543Z,-0.94
2023-01-26T12:10:05.709Z,-0.82
2023-01-26T12:11:26.678Z,-0.85
2023-01-26T12:12:39.245Z,-0.93
2023-01-26T12:13:43.905Z,-0.95
2023-01-26T12:14:47.239Z,-0.95
2023-01-26T12:15:53.866Z,-1.03
2023-01-26T12:17:37.398Z,-1.00
2023-01-26T12:19:10.846Z,-0.94
2023-01-26T12:20:22.199Z,-0.99
2023-01-26T12:21:23.946Z,-0.98
2023-01-26T12:22:35.597Z,-0.84
2023-01-26T12:23:44.721Z,-0.97
2023-01-26T12:25:17.297Z,-0.99
2023-01-26T12:26:18.292Z,-0.88
2023-01-26T12:27:25.872Z,-0.91
2023-01-26T12:28:47.118Z,-0.90
2023-01-26T12:29:57.132Z,-0.89
2023-01-26T12:31:13.908Z,-1.01
2023-01-26T12:32:16.914Z,-0.89
2023-01-26T12:33:18.751Z,-0.84
2023-01-26T12:34:28.379Z,-0.78
2023-01-26T12:36:07.639Z,-0.88
2023-01-26T12:37:21.295Z,-0.82
2023-01-26T12:38:41.028Z,-0.72
2023-01-26T12:39:52.852Z,-0.78
2023-01-26T12:41:11.760Z,-0.66
2023-01-26T12:42:30.149Z,-0.78
2023-01-26T12:43:43.803Z,-0.87
2023-01-26T12:44:55.492Z,-0.74
2023-01-26T12:46:00.447Z,-0.74
2023-01-26T12:47:31.392Z,-0.62
2023-01-26T12:48:43.667Z,-0.55
2023-01-26T12:49:49.895Z,-0.57
2023-01-26T12:51:14.728Z,-0.56
2023-01-26T12:52:51.103Z,-0.48
2023-01-26T12:54:31.860Z,-0.69
2023-01-26T12:55:56.861Z,-0.74
2023-01-26T12:57:00.328Z,-0.73
2023-01-26T12:58:05.675Z,-0.67
2023-01-26T12:59:46.758Z,-0.76
2023-01-26T13:00:39.503Z,-0.83
2023-01-26T13:01:42.027Z,-0.93
2023-01-26T13:02:45.364Z,-0.92
2023-01-26T13:03:59.250Z,-1.19
2023-01-26T13:05:02.668Z,-1.49
2023-01-26T13:06:10.324Z,-1.69
2023-01-26T13:07:37.640Z,-1.87
2023-01-26T13:08:41.779Z,-1.85
2023-01-26T13:10:16.236Z,-1.88
2023-01-26T13:11:47.622Z,-1.82
2023-01-26T13:12:49.215Z,-1.87
2023-01-26T13:13:57.701Z,-1.93
2023-01-26T13:15:00.521Z,-1.97
2023-01-26T13:16:17.196Z,-1.93
2023-01-26T13:17:23.923Z,-1.80
2023-01-26T13:18:48.752Z,-1.89
2023-01-26T13:19:59.611Z,-1.87
2023-01-26T13:21:01.247Z,-1.92
2023-01-26T13:22:02.958Z,-1.74
2023-01-26T13:23:45.880Z,-1.74
2023-01-26T13:24:56.299Z,-1.38
2023-01-26T13:26:17.539Z,-1.35
2023-01-26T13:27:34.447Z,-1.22
2023-01-26T13:28:36.089Z,-1.22
2023-01-26T13:29:53.776Z,-1.16
2023-01-26T13:31:04.396Z,-1.17
2023-01-26T13:32:09.077Z,-1.15
2023-01-26T13:33:10.700Z,-1.13
2023-01-26T13:34:14.404Z,-1.12
2023-01-26T13:35:22.020Z,-1.15
2023-01-26T13:36:23.838Z,-1.19
2023-01-26T13:37:31.598Z,-1.23
2023-01-26T13:38:33.657Z,-1.23
2023-01-26T13:39:37.532Z,-1.13
2023-01-26T13:40:44.321Z,-1.20
2023-01-26T13:41:47.723Z,-1.25
2023-01-26T13:43:25.215Z,-1.14
2023-01-26T13:44:37.812Z,-1.04
2023-01-26T13:46:02.892Z,-0.92
2023-01-26T13:47:12.583Z,-0.88
2023-01-26T13:48:16.547Z,-0.88
2023-01-26T13:49:37.782Z,-0.81
2023-01-26T13:50:40.663Z,-0.90
2023-01-26T13:51:43.288Z,-0.81
2023-01-26T13:52:44.825Z,-0.84
2023-01-26T13:53:57.230Z,-0.94
2023-01-26T13:55:00.357Z,-0.89
2023-01-26T13:56:07.587Z,-0.82
2023-01-26T13:57:11.546Z,-0.87
2023-01-26T13:58:15.271Z,-0.90
2023-01-26T13:59:19.581Z,-1.02
2023-01-26T14:00:21.542Z,-0.99
2023-01-26T14:01:23.185Z,-1.07
2023-01-26T14:02:28.065Z,-1.19
2023-01-26T14:03:31.342Z,-1.19
2023-01-26T14:04:35.233Z,-1.27
2023-01-26T14:05:36.975Z,-1.28
2023-01-26T14:06:38.732Z,-1.29
2023-01-26T14:07:42.584Z,-1.51
2023-01-26T14:08:53.295Z,-1.78
2023-01-26T14:09:56.140Z,-1.92
2023-01-26T14:10:58.329Z,-1.93
2023-01-26T14:12:02.299Z,-1.94
2023-01-26T14:13:04.833Z,-1.99
2023-01-26T14:14:06.897Z,-2.01
2023-01-26T14:15:22.461Z,-2.07
2023-01-26T14:16:29.618Z,-2.13
2023-01-26T14:17:33.240Z,-2.10
2023-01-26T14:18:34.947Z,-2.14
2023-01-26T14:19:40.499Z,-2.23
2023-01-26T14:20:42.272Z,-2.21
2023-01-26T14:22:12.695Z,-2.19
2023-01-26T14:23:21.464Z,-2.10
2023-01-26T14:24:43.129Z,-2.04
2023-01-26T14:26:05.694Z,-1.81
2023-01-26T14:27:29.220Z,-1.57